Flight Track Log - Related Links

Times and Time Zones

All times are in EDT time to prevent confusion due to time zone crossing. See the UAL3852 flight status page for this flight to view local times or setup timezone preferences in your user account.

Time Position Orientation Groundspeed Altitude Reporting Facility
EDT Latitude Longitude Course Direction KTS MPH feet Rate Location/Type
Thu 05:44:25 PM 29.9597 -95.3439 197° South 159 183 800  Level Houston Center
Thu 05:44:55 PM 29.9394 -95.3511 197° South 190 219 1,400 1,565 Climbing Houston Center
Thu 05:45:57 PM 29.9689 -95.3981 306° West 225 259 3,200 1,465 Climbing Houston Center
Thu 05:46:21 PM 29.9842 -95.3917 20° North 232 267 3,500 1,672 Climbing Houston Center
Thu 05:46:58 PM 30.0311 -95.3667 25° Northeast 252 290 4,900 1,742 Climbing Houston Center
Thu 05:47:23 PM 30.0467 -95.3572 28° Northeast 240 276 5,300 2,149 Climbing Houston Center
Thu 05:48:05 PM 30.1114 -95.3256 23° Northeast 281 323 7,300 2,516 Climbing Houston Center
Thu 05:48:25 PM 30.1306 -95.3125 31° Northeast 269 310 7,900 2,040 Climbing Houston Center
Thu 05:48:55 PM 30.1653 -95.2972 21° North 278 320 9,000 2,190 Climbing Houston Center
Thu 05:49:28 PM 30.2008 -95.2772 26° Northeast 274 315 10,200 1,750 Climbing Houston Center
Thu 05:50:07 PM 30.2517 -95.2528 23° Northeast 276 318 11,100 1,161 Climbing Houston Center
Thu 05:50:30 PM 30.2728 -95.2400 28° Northeast 276 318 11,400 968 Climbing Houston Center
Thu 05:51:09 PM 30.3297 -95.2117 23° Northeast 316 364 12,100 968 Climbing Houston Center
Thu 05:51:32 PM 30.3531 -95.1975 28° Northeast 304 350 12,400 1,082 Climbing Houston Center
Thu 05:52:10 PM 30.4197 -95.1644 23° Northeast 338 389 13,200 1,065 Climbing Houston Center
Thu 05:52:34 PM 30.4392 -95.1522 28° Northeast 328 377 13,500 907 Climbing Houston Center
Thu 05:53:36 PM 30.5286 -95.1064 24° Northeast 347 399 14,500 1,016 Climbing Houston Center
Thu 05:54:38 PM 30.6353 -95.0464 26° Northeast 349 402 15,600 1,008 Climbing Houston Center
Thu 05:55:41 PM 30.7208 -94.9908 29° Northeast 351 404 16,600 960 Climbing Houston Center
Thu 05:56:43 PM 30.8083 -94.9339 29° Northeast 354 407 17,600 919 Climbing Houston Center
Thu 05:57:45 PM 30.8950 -94.8783 29° Northeast 355 409 18,500 919 Climbing Houston Center
Thu 05:58:47 PM 30.9806 -94.8225 29° Northeast 355 409 19,500 1,065 Climbing Houston Center
Thu 05:59:49 PM 31.0833 -94.7550 29° Northeast 355 409 20,700 1,065 Climbing Houston Center
Thu 06:00:51 PM 31.1689 -94.6983 30° Northeast 356 410 21,700 1,056 Climbing Houston Center
Thu 06:01:54 PM 31.2544 -94.6419 29° Northeast 361 415 22,900 1,248 Climbing Houston Center
Thu 06:02:56 PM 31.3378 -94.5900 28° Northeast 348 400 24,300 1,016 Climbing Houston Center
Thu 06:03:58 PM 31.4375 -94.5247 29° Northeast 342 394 25,000 339 Climbing Houston Center
Thu 06:05:00 PM 31.5275 -94.4639 30° Northeast 370 426 25,000  Level Houston Center
Thu 06:06:02 PM 31.6203 -94.3992 31° Northeast 384 442 25,000 -57 Level Houston Center
Thu 06:06:45 PM 31.6992 -94.3444 31° Northeast 402 463 24,900  Descending Fort Worth Center
Thu 06:07:47 PM 31.7989 -94.2747 31° Northeast 413 475 25,000 48 Climbing Fort Worth Center
Thu 06:08:49 PM 31.8997 -94.2042 31° Northeast 416 479 25,000  Level Fort Worth Center
Thu 06:09:51 PM 32.0014 -94.1336 30° Northeast 423 487 25,000 -48 Level Fort Worth Center
Thu 06:10:53 PM 32.1042 -94.0594 31° Northeast 427 491 24,900  Descending Fort Worth Center
Thu 06:11:56 PM 32.2222 -93.9758 31° Northeast 430 495 25,000 48 Climbing Fort Worth Center
Thu 06:12:58 PM 32.3258 -93.9036 30° Northeast 431 496 25,000  Level Fort Worth Center
Thu 06:14:00 PM 32.4281 -93.8297 31° Northeast 432 497 25,000  Level Fort Worth Center
Thu 06:15:02 PM 32.5303 -93.7597 30° Northeast 427 491 25,000  Level Fort Worth Center
Thu 06:16:04 PM 32.6336 -93.6831 32° Northeast 438 504 25,000  Level Fort Worth Center
Thu 06:17:06 PM 32.7558 -93.5958 31° Northeast 433 498 25,000  Level Fort Worth Center
Thu 06:18:08 PM 32.8572 -93.5214 32° Northeast 432 497 25,000  Level Fort Worth Center
Thu 06:19:11 PM 32.9592 -93.4478 31° Northeast 432 497 25,000  Level Fort Worth Center
Thu 06:20:13 PM 33.0622 -93.3739 31° Northeast 432 497 25,000  Level Fort Worth Center
Thu 06:21:15 PM 33.1639 -93.3000 31° Northeast 432 497 25,000  Level Fort Worth Center
Thu 06:22:17 PM 33.2878 -93.2097 31° Northeast 435 501 25,000  Level Fort Worth Center
Thu 06:23:19 PM 33.3892 -93.1367 31° Northeast 433 498 25,000  Level Fort Worth Center
Thu 06:24:21 PM 33.4917 -93.0619 31° Northeast 433 498 25,000 -339 Level Fort Worth Center
Thu 06:25:23 PM 33.5942 -92.9867 31° Northeast 433 498 24,300 -1,000 Descending Fort Worth Center
Thu 06:25:57 PM 33.6558 -92.9431 30° Northeast 432 497 23,400 -1,438 Descending Memphis Center
Thu 06:26:59 PM 33.7583 -92.8694 31° Northeast 432 497 22,000 -1,452 Descending Memphis Center
Thu 06:28:01 PM 33.8558 -92.7975 31° Northeast 420 483 20,400 -2,121 Descending Memphis Center
Thu 06:28:38 PM 33.9267 -92.7458 31° Northeast 395 455 18,500 -3,097 Descending Memphis Center
Thu 06:29:03 PM 33.9672 -92.7139 33° Northeast 399 459 17,200 -3,443 Descending Memphis Center
Thu 06:29:39 PM 34.0200 -92.6753 31° Northeast 374 430 15,000 -3,290 Descending Memphis Center
Thu 06:30:05 PM 34.0544 -92.6492 32° Northeast 376 433 13,800 -3,000 Descending Memphis Center
Thu 06:30:39 PM 34.1011 -92.6153 31° Northeast 345 397 12,000 -2,516 Descending Memphis Center
Thu 06:31:07 PM 34.1244 -92.5964 34° Northeast 348 400 11,200 -1,967 Descending Memphis Center
Thu 06:31:40 PM 34.1742 -92.5583 32° Northeast 283 326 10,000 -1,839 Descending Memphis Center
Thu 06:32:09 PM 34.2053 -92.5369 30° Northeast 291 335 9,300 -1,400 Descending Memphis Center
Thu 06:32:40 PM 34.2350 -92.5144 32° Northeast 247 284 8,600 -1,406 Descending Memphis Center
Thu 06:33:13 PM 34.2650 -92.4928 31° Northeast 259 298 7,800 -1,745 Descending Memphis Center
Thu 06:33:35 PM 34.2919 -92.4733 31° Northeast 248 285 7,000 -1,700 Descending Memphis Center
Thu 06:34:13 PM 34.3247 -92.4481 32° Northeast 255 293 6,100 -1,612 Descending Memphis Center
Thu 06:34:42 PM 34.3569 -92.4289 26° Northeast 253 291 5,200 -1,548 Descending Memphis Center
Thu 06:35:15 PM 34.3886 -92.4142 21° North 253 291 4,500 -1,200 Descending Memphis Center
Thu 06:35:42 PM 34.4247 -92.4022 15° North 249 287 4,000 -484 Descending Memphis Center
Thu 06:36:17 PM 34.4542 -92.3886 21° North 253 291 4,000 -327 Level Memphis Center
Thu 06:36:37 PM 34.4822 -92.3786 16° North 248 285 3,700 -968 Descending Memphis Center
Thu 06:37:19 PM 34.5189 -92.3614 21° North 251 289 3,000 -1,333 Descending Memphis Center
Thu 06:37:31 PM 34.5436 -92.3494 22° Northeast 247 284 2,500 -896 Descending Memphis Center
Thu 06:38:26 PM 34.5992 -92.3258 19° North 234 269 2,000 -268 Descending Memphis Center
Thu 06:39:23 PM 34.6542 -92.3003 21° North 239 275 2,000 -403 Level Memphis Center
Thu 06:40:25 PM 34.6869 -92.2639 42° Northeast 191 220 1,200 -435 Descending Memphis Center
Thu 06:41:27 PM 34.7136 -92.2267 49° Northeast 183 211 1,100 -97 Descending Memphis Center

Login

Don't have an account? Register now (free) for customized features, flight alerts, and more!